createdAt,value
2019-04-26T00:00:30.073Z,0.70
2019-04-26T00:03:00.202Z,0.90
2019-04-26T00:05:34.964Z,0.83
2019-04-26T00:07:58.871Z,0.80
2019-04-26T00:10:31.913Z,0.80
2019-04-26T00:16:12.648Z,0.80
2019-04-26T00:18:41.323Z,0.80
2019-04-26T00:21:09.802Z,0.80
2019-04-26T00:23:39.494Z,0.73
2019-04-26T00:26:08.226Z,0.73
2019-04-26T00:28:36.775Z,0.90
2019-04-26T00:31:05.244Z,0.80
2019-04-26T00:33:33.882Z,0.80
2019-04-26T00:36:02.436Z,0.80
2019-04-26T00:38:30.986Z,0.80
2019-04-26T00:40:59.598Z,0.97
2019-04-26T00:43:28.620Z,1.23
2019-04-26T00:45:58.595Z,0.80
2019-04-26T00:48:28.785Z,0.90
2019-04-26T00:50:57.942Z,0.90
2019-04-26T00:53:29.240Z,0.90
2019-04-26T00:55:58.459Z,0.80
2019-04-26T00:58:28.353Z,0.97
2019-04-26T01:00:56.770Z,0.80
2019-04-26T01:03:25.319Z,0.80
2019-04-26T01:06:00.036Z,1.10
2019-04-26T01:08:25.595Z,0.80
2019-04-26T01:10:54.020Z,0.80
2019-04-26T01:13:22.462Z,1.00
2019-04-26T01:15:50.890Z,1.30
2019-04-26T01:18:20.173Z,1.07
2019-04-26T01:20:51.783Z,1.00
2019-04-26T01:23:21.663Z,0.93
2019-04-26T01:26:23.180Z,0.90
2019-04-26T01:28:55.003Z,1.10
2019-04-26T01:31:24.777Z,1.10
2019-04-26T01:34:05.651Z,0.90
2019-04-26T01:36:36.317Z,1.10
2019-04-26T01:39:09.713Z,1.07
2019-04-26T01:41:46.039Z,1.20
2019-04-26T01:44:16.459Z,1.10
2019-04-26T01:46:46.765Z,1.10
2019-04-26T01:49:17.917Z,1.10
2019-04-26T01:52:01.189Z,1.00
2019-04-26T01:54:32.770Z,0.97
2019-04-26T01:57:03.768Z,1.00
2019-04-26T01:59:34.002Z,0.83
2019-04-26T02:02:04.130Z,0.90
2019-04-26T02:04:34.277Z,1.10
2019-04-26T02:07:02.792Z,1.10
2019-04-26T02:09:32.659Z,1.10
2019-04-26T02:12:02.044Z,0.93
2019-04-26T02:14:31.083Z,1.07
2019-04-26T02:17:00.915Z,1.33
2019-04-26T02:19:29.909Z,0.90
2019-04-26T02:22:12.523Z,0.90
2019-04-26T02:24:42.713Z,1.13
2019-04-26T02:27:16.278Z,1.00
2019-04-26T02:29:44.729Z,1.27
2019-04-26T02:32:13.332Z,1.10
2019-04-26T02:34:41.950Z,1.20
2019-04-26T02:37:12.838Z,1.40
2019-04-26T02:39:41.973Z,1.10
2019-04-26T02:42:19.597Z,1.10
2019-04-26T02:45:01.901Z,1.13
2019-04-26T02:47:36.752Z,1.10
2019-04-26T02:50:09.376Z,1.10
2019-04-26T02:52:40.981Z,1.17
2019-04-26T02:55:41.810Z,1.00
2019-04-26T02:58:06.577Z,1.00
2019-04-26T03:00:35.845Z,0.97
2019-04-26T03:03:07.109Z,1.10
2019-04-26T03:05:39.670Z,1.20
2019-04-26T03:08:11.473Z,1.00
2019-04-26T03:10:43.446Z,1.13
2019-04-26T03:13:16.932Z,1.20
2019-04-26T03:15:52.827Z,1.20
2019-04-26T03:18:28.736Z,1.10
2019-04-26T03:21:00.309Z,1.30
2019-04-26T03:23:53.218Z,1.17
2019-04-26T03:26:37.519Z,1.27
2019-04-26T03:29:10.083Z,1.13
2019-04-26T03:32:16.364Z,1.40
2019-04-26T03:34:55.362Z,1.50
2019-04-26T03:37:38.308Z,1.10
2019-04-26T03:40:43.153Z,1.50
2019-04-26T03:43:31.152Z,1.40
2019-04-26T03:46:23.920Z,1.50
2019-04-26T03:49:12.016Z,1.30
2019-04-26T03:51:55.054Z,1.37
2019-04-26T03:54:26.556Z,1.10
2019-04-26T03:57:17.582Z,1.20
2019-04-26T03:59:53.138Z,1.33
2019-04-26T04:02:37.437Z,1.20
2019-04-26T04:05:28.359Z,1.37
2019-04-26T04:07:59.862Z,1.67
2019-04-26T04:10:41.955Z,1.60
2019-04-26T04:13:44.187Z,1.37
2019-04-26T04:16:26.118Z,1.90
2019-04-26T04:19:27.559Z,1.20
2019-04-26T04:22:01.660Z,1.63
2019-04-26T04:24:43.561Z,1.53
2019-04-26T04:27:18.051Z,1.67
2019-04-26T04:29:55.185Z,1.60
2019-04-26T04:32:42.570Z,1.80
2019-04-26T04:35:12.709Z,1.90
2019-04-26T04:38:09.800Z,1.83
2019-04-26T04:40:53.359Z,2.03
2019-04-26T04:43:38.575Z,1.60
2019-04-26T04:46:26.382Z,2.00
2019-04-26T04:49:14.327Z,2.17
2019-04-26T04:51:46.883Z,2.33
2019-04-26T04:54:41.559Z,2.83
2019-04-26T04:57:31.623Z,2.97
2019-04-26T05:00:04.814Z,3.10
2019-04-26T05:02:58.774Z,2.97
2019-04-26T05:06:06.937Z,2.67
2019-04-26T05:08:37.853Z,3.47
2019-04-26T05:11:14.935Z,3.17
2019-04-26T05:13:46.455Z,3.20
2019-04-26T05:16:34.435Z,3.57
2019-04-26T05:22:13.840Z,4.40
2019-04-26T05:25:21.964Z,3.67
2019-04-26T05:28:04.097Z,4.17
2019-04-26T05:30:43.114Z,5.03
2019-04-26T05:33:26.234Z,4.83
2019-04-26T05:36:08.338Z,4.33
2019-04-26T05:38:42.878Z,5.20
2019-04-26T05:41:35.512Z,4.90
2019-04-26T05:44:14.495Z,4.57
2019-04-26T05:47:11.430Z,4.93
2019-04-26T05:49:50.371Z,4.83
2019-04-26T05:52:26.426Z,5.17
2019-04-26T05:54:59.556Z,5.93
2019-04-26T05:57:38.505Z,5.10
2019-04-26T06:00:28.822Z,5.00
2019-04-26T06:03:20.023Z,5.90
2019-04-26T06:06:12.870Z,5.37
2019-04-26T06:09:11.816Z,5.73
2019-04-26T06:12:07.360Z,5.27
2019-04-26T06:14:40.507Z,5.83
2019-04-26T06:17:19.508Z,5.70
2019-04-26T06:20:24.457Z,5.60
2019-04-26T06:23:08.127Z,6.30
2019-04-26T06:25:49.625Z,5.20
2019-04-26T06:28:29.388Z,6.30
2019-04-26T06:31:12.844Z,5.67
2019-04-26T06:33:50.220Z,4.97
2019-04-26T06:36:22.939Z,4.53
2019-04-26T06:39:02.131Z,6.60
2019-04-26T06:42:02.970Z,5.90
2019-04-26T06:44:36.251Z,4.80
2019-04-26T06:47:24.470Z,6.30
2019-04-26T06:50:10.164Z,6.17
2019-04-26T06:52:50.658Z,5.23
2019-04-26T06:55:23.795Z,4.63
2019-04-26T06:58:02.880Z,5.23
2019-04-26T07:01:05.414Z,5.20
2019-04-26T07:03:39.970Z,4.77
2019-04-26T07:06:12.115Z,5.27
2019-04-26T07:08:56.734Z,4.97
2019-04-26T07:11:40.713Z,4.53
2019-04-26T07:14:18.194Z,4.30
2019-04-26T07:16:55.478Z,4.63
2019-04-26T07:20:09.128Z,3.70
2019-04-26T07:23:17.162Z,4.20
2019-04-26T07:26:17.695Z,4.23
2019-04-26T07:29:13.517Z,4.00
2019-04-26T07:31:47.543Z,3.90
2019-04-26T07:35:01.070Z,3.80
2019-04-26T07:37:38.838Z,4.33
2019-04-26T07:40:26.284Z,3.93
2019-04-26T07:43:17.308Z,4.80
2019-04-26T07:46:08.137Z,3.93
2019-04-26T07:48:55.991Z,4.33
2019-04-26T07:51:45.506Z,3.10
2019-04-26T07:54:36.178Z,4.17
2019-04-26T07:57:41.115Z,4.40
2019-04-26T08:00:15.375Z,3.50
2019-04-26T08:03:16.020Z,4.23
2019-04-26T08:05:53.912Z,3.27
2019-04-26T08:08:25.524Z,2.93
2019-04-26T08:11:21.317Z,3.80
2019-04-26T08:14:04.780Z,3.70
2019-04-26T08:16:38.348Z,2.73
2019-04-26T08:19:10.678Z,2.70
2019-04-26T08:21:47.840Z,2.27
2019-04-26T08:24:27.895Z,2.20
2019-04-26T08:27:21.160Z,2.27
2019-04-26T08:29:46.011Z,2.00
2019-04-26T08:32:19.164Z,2.00
2019-04-26T08:34:50.747Z,2.03
2019-04-26T08:37:23.446Z,2.27
2019-04-26T08:39:53.022Z,2.60
2019-04-26T08:42:25.148Z,1.97
2019-04-26T08:44:59.899Z,1.70
2019-04-26T08:47:34.467Z,1.90
2019-04-26T08:50:09.687Z,1.90
2019-04-26T08:52:37.255Z,2.17
2019-04-26T08:55:07.819Z,1.77
2019-04-26T08:57:38.556Z,2.00
2019-04-26T09:00:11.717Z,2.10
2019-04-26T09:02:54.524Z,1.87
2019-04-26T09:05:45.614Z,1.67
2019-04-26T09:08:17.370Z,2.27
2019-04-26T09:10:48.615Z,2.33
2019-04-26T09:13:19.651Z,2.27
2019-04-26T09:16:09.440Z,2.10
2019-04-26T09:18:43.373Z,1.40
2019-04-26T09:21:08.288Z,1.87
2019-04-26T09:23:54.535Z,1.80
2019-04-26T09:26:30.804Z,1.53
2019-04-26T09:29:19.007Z,1.40
2019-04-26T09:31:54.460Z,1.63
2019-04-26T09:34:23.543Z,1.90
2019-04-26T09:36:52.092Z,1.73
2019-04-26T09:39:20.523Z,1.53
2019-04-26T09:41:49.039Z,2.47
2019-04-26T09:44:24.798Z,1.37
2019-04-26T09:47:04.127Z,1.20
2019-04-26T09:49:37.311Z,1.50
2019-04-26T09:52:07.611Z,1.80
2019-04-26T09:54:36.055Z,1.47
2019-04-26T09:57:04.670Z,1.80
2019-04-26T09:59:36.318Z,2.27
2019-04-26T10:02:04.213Z,2.03
2019-04-26T10:04:32.635Z,1.90
2019-04-26T10:07:03.304Z,1.90
2019-04-26T10:09:32.890Z,2.07
2019-04-26T10:12:19.106Z,2.17
2019-04-26T10:14:49.179Z,2.10
2019-04-26T10:17:19.251Z,2.30
2019-04-26T10:19:52.222Z,2.80
2019-04-26T10:22:21.955Z,4.73
2019-04-26T10:24:50.390Z,34.67
2019-04-26T10:27:18.831Z,15.10
2019-04-26T10:29:47.251Z,5.93
2019-04-26T10:32:15.698Z,3.37
2019-04-26T10:34:47.402Z,2.80
2019-04-26T10:37:14.350Z,3.80
2019-04-26T10:39:42.799Z,3.10
2019-04-26T10:42:11.313Z,2.70
2019-04-26T10:44:41.001Z,2.70
2019-04-26T10:47:09.644Z,3.57
2019-04-26T10:49:46.068Z,2.60
2019-04-26T10:52:26.881Z,3.60
2019-04-26T10:55:06.298Z,3.30
2019-04-26T10:57:39.032Z,3.53
2019-04-26T11:00:10.010Z,4.17
2019-04-26T11:02:38.527Z,3.70
2019-04-26T11:05:07.660Z,3.60
2019-04-26T11:07:36.182Z,3.70
2019-04-26T11:10:06.404Z,3.40
2019-04-26T11:12:34.925Z,4.43
2019-04-26T11:15:06.105Z,3.80
2019-04-26T11:17:33.603Z,3.70
2019-04-26T11:20:02.062Z,4.20
2019-04-26T11:22:33.462Z,4.60
2019-04-26T11:25:00.797Z,4.77
2019-04-26T11:27:29.329Z,4.83
2019-04-26T11:30:00.082Z,4.33
2019-04-26T11:32:47.347Z,4.40
2019-04-26T11:35:15.847Z,4.50
2019-04-26T11:37:46.269Z,4.03
2019-04-26T11:40:15.864Z,4.30
2019-04-26T11:42:45.671Z,4.63
2019-04-26T11:45:16.110Z,4.77
2019-04-26T11:47:55.492Z,5.30
2019-04-26T11:50:16.240Z,4.30
2019-04-26T11:52:45.001Z,4.80
2019-04-26T11:55:14.960Z,5.57
2019-04-26T11:57:47.012Z,4.40
2019-04-26T12:00:15.983Z,5.23
2019-04-26T12:02:46.317Z,4.20
2019-04-26T12:05:22.630Z,5.00
2019-04-26T12:07:55.591Z,5.00
2019-04-26T12:10:26.965Z,5.37
2019-04-26T12:13:05.052Z,5.03
2019-04-26T12:15:30.471Z,5.70
2019-04-26T12:17:58.779Z,4.80
2019-04-26T12:20:26.895Z,5.30
2019-04-26T12:22:54.952Z,5.37
2019-04-26T12:25:23.398Z,4.97
2019-04-26T12:27:53.562Z,4.90
2019-04-26T12:30:26.416Z,4.83
2019-04-26T12:32:52.246Z,4.23
2019-04-26T12:35:20.759Z,4.30
2019-04-26T12:37:50.602Z,4.10
2019-04-26T12:40:19.550Z,4.60
2019-04-26T12:42:48.363Z,3.60
2019-04-26T12:45:34.521Z,4.27
2019-04-26T12:48:04.591Z,4.67
2019-04-26T12:50:36.435Z,4.33
2019-04-26T12:53:03.187Z,4.83
2019-04-26T12:55:31.978Z,3.83
2019-04-26T12:58:00.393Z,3.87
2019-04-26T13:00:32.858Z,4.67
2019-04-26T13:03:01.597Z,4.50
2019-04-26T13:05:30.094Z,4.43
2019-04-26T13:07:58.534Z,4.87
2019-04-26T13:10:35.482Z,5.07
2019-04-26T13:13:15.212Z,4.40
2019-04-26T13:16:05.631Z,5.80
2019-04-26T13:18:34.444Z,7.43
2019-04-26T13:21:04.200Z,11.40
2019-04-26T13:23:32.882Z,5.43
2019-04-26T13:26:01.642Z,3.83
2019-04-26T13:28:30.227Z,4.47
2019-04-26T13:30:58.688Z,4.10
2019-04-26T13:33:27.926Z,4.40
2019-04-26T13:36:04.388Z,3.80
2019-04-26T13:38:27.509Z,4.30
2019-04-26T13:40:59.841Z,3.63
2019-04-26T13:43:27.076Z,3.70
2019-04-26T13:45:57.999Z,4.40
2019-04-26T13:48:34.018Z,3.43
2019-04-26T13:51:13.093Z,3.27
2019-04-26T13:53:41.524Z,3.20
2019-04-26T13:56:10.032Z,3.33
2019-04-26T13:58:38.473Z,3.10
2019-04-26T14:01:06.984Z,4.10
2019-04-26T14:03:35.411Z,3.07
2019-04-26T14:06:03.948Z,4.10
2019-04-26T14:08:32.378Z,3.60
2019-04-26T14:11:00.816Z,3.20
2019-04-26T14:13:29.321Z,3.70
2019-04-26T14:15:57.816Z,3.80
2019-04-26T14:18:26.256Z,3.40
2019-04-26T14:20:58.864Z,3.50
2019-04-26T14:23:33.609Z,3.20
2019-04-26T14:26:09.599Z,10.90
2019-04-26T14:28:38.063Z,4.60
2019-04-26T14:31:06.614Z,4.93
2019-04-26T14:33:35.077Z,4.30
2019-04-26T14:36:16.660Z,4.50
2019-04-26T14:38:39.382Z,8.47
2019-04-26T14:41:04.718Z,12.30
2019-04-26T14:43:40.635Z,8.43
2019-04-26T14:46:03.806Z,5.97
2019-04-26T14:48:36.165Z,6.77
2019-04-26T14:51:08.299Z,5.17
2019-04-26T14:53:36.451Z,5.73
2019-04-26T14:56:02.884Z,5.40
2019-04-26T14:58:33.308Z,4.50
2019-04-26T15:01:03.205Z,5.87
2019-04-26T15:03:39.185Z,11.30
2019-04-26T15:06:16.788Z,7.87
2019-04-26T15:08:48.568Z,10.27
2019-04-26T15:11:15.463Z,10.67
2019-04-26T15:13:43.971Z,7.30
2019-04-26T15:16:14.265Z,8.90
2019-04-26T15:18:42.754Z,10.30
2019-04-26T15:21:12.840Z,9.63
2019-04-26T15:23:41.521Z,6.87
2019-04-26T15:26:09.958Z,7.20
2019-04-26T15:28:38.499Z,6.73
2019-04-26T15:31:06.996Z,5.37
2019-04-26T15:33:36.012Z,6.57
2019-04-26T15:36:06.368Z,6.00
2019-04-26T15:38:41.320Z,6.40
2019-04-26T15:41:14.652Z,7.10
2019-04-26T15:43:46.777Z,6.60
2019-04-26T15:46:17.015Z,6.00
2019-04-26T15:49:05.134Z,5.50
2019-04-26T15:51:35.049Z,5.20
2019-04-26T15:54:03.557Z,5.23
2019-04-26T15:56:32.485Z,4.33
2019-04-26T15:59:02.570Z,4.47
2019-04-26T16:01:32.558Z,5.50
2019-04-26T16:04:04.422Z,4.80
2019-04-26T16:06:32.217Z,5.23
2019-04-26T16:09:02.343Z,4.60
2019-04-26T16:11:31.027Z,5.73
2019-04-26T16:13:59.446Z,5.27
2019-04-26T16:16:29.174Z,5.80
2019-04-26T16:18:58.041Z,5.30
2019-04-26T16:21:26.488Z,5.07
2019-04-26T16:23:55.341Z,5.97
2019-04-26T16:26:23.962Z,5.90
2019-04-26T16:29:05.662Z,5.13
2019-04-26T16:31:45.931Z,6.70
2019-04-26T16:34:28.577Z,6.40
2019-04-26T16:36:57.011Z,5.90
2019-04-26T16:39:32.334Z,6.00
2019-04-26T16:41:59.194Z,6.50
2019-04-26T16:44:30.123Z,6.47
2019-04-26T16:47:01.491Z,7.40
2019-04-26T16:49:26.133Z,6.87
2019-04-26T16:52:02.015Z,6.53
2019-04-26T16:54:26.839Z,6.10
2019-04-26T16:56:59.097Z,6.47
2019-04-26T16:59:26.767Z,6.87
2019-04-26T17:01:55.400Z,6.70
2019-04-26T17:04:29.001Z,7.03
2019-04-26T17:06:54.088Z,7.00
2019-04-26T17:09:23.604Z,7.20
2019-04-26T17:11:52.446Z,7.33
2019-04-26T17:14:22.529Z,7.20
2019-04-26T17:16:53.054Z,8.17
2019-04-26T17:19:22.798Z,8.13
2019-04-26T17:21:56.638Z,8.60
2019-04-26T17:24:38.092Z,8.33
2019-04-26T17:27:14.409Z,10.30
2019-04-26T17:29:42.388Z,10.43
2019-04-26T17:32:13.990Z,8.87
2019-04-26T17:34:41.083Z,8.60
2019-04-26T17:37:12.723Z,9.50
2019-04-26T17:39:40.799Z,9.13
2019-04-26T17:42:10.514Z,9.10
2019-04-26T17:44:39.129Z,8.43
2019-04-26T17:47:08.497Z,9.43
2019-04-26T17:49:40.213Z,9.70
2019-04-26T17:52:07.775Z,8.47
2019-04-26T17:54:46.174Z,9.50
2019-04-26T17:57:08.741Z,9.93
2019-04-26T17:59:37.047Z,10.07
2019-04-26T18:02:19.674Z,9.33
2019-04-26T18:04:40.525Z,9.97
2019-04-26T18:07:33.741Z,9.80
2019-04-26T18:09:43.558Z,9.87
2019-04-26T18:12:07.940Z,9.17
2019-04-26T18:14:36.380Z,10.30
2019-04-26T18:17:18.525Z,9.57
2019-04-26T18:19:54.415Z,10.00
2019-04-26T18:22:39.514Z,9.33
2019-04-26T18:25:12.420Z,10.00
2019-04-26T18:27:38.867Z,10.20
2019-04-26T18:30:11.765Z,9.17
2019-04-26T18:32:43.049Z,10.00
2019-04-26T18:35:12.860Z,8.87
2019-04-26T18:37:39.518Z,9.80
2019-04-26T18:40:08.108Z,9.50
2019-04-26T18:42:37.470Z,8.80
2019-04-26T18:45:08.261Z,11.40
2019-04-26T18:47:38.348Z,10.63
2019-04-26T18:50:08.307Z,10.07
2019-04-26T18:52:38.462Z,11.17
2019-04-26T18:55:08.808Z,12.30
2019-04-26T18:57:37.263Z,12.30
2019-04-26T19:00:09.914Z,11.40
2019-04-26T19:02:38.496Z,10.53
2019-04-26T19:05:06.990Z,11.80
2019-04-26T19:07:35.432Z,10.87
2019-04-26T19:10:07.388Z,10.60
2019-04-26T19:12:36.496Z,10.20
2019-04-26T19:15:21.830Z,9.60
2019-04-26T19:18:04.336Z,9.77
2019-04-26T19:20:32.803Z,9.90
2019-04-26T19:23:03.018Z,9.70
2019-04-26T19:25:34.499Z,10.30
2019-04-26T19:28:04.442Z,10.33
2019-04-26T19:30:32.049Z,11.57
2019-04-26T19:33:02.075Z,9.87
2019-04-26T19:35:30.746Z,11.20
2019-04-26T19:37:59.177Z,10.80
2019-04-26T19:40:27.668Z,11.90
2019-04-26T19:42:57.591Z,11.30
2019-04-26T19:45:31.304Z,10.97
2019-04-26T19:48:04.716Z,11.30
2019-04-26T19:50:52.589Z,12.03
2019-04-26T19:53:28.697Z,11.97
2019-04-26T19:56:17.449Z,11.90
2019-04-26T19:58:50.559Z,11.70
2019-04-26T20:01:20.830Z,11.30
2019-04-26T20:03:52.063Z,11.40
2019-04-26T20:06:19.950Z,12.90
2019-04-26T20:08:49.653Z,11.07
2019-04-26T20:11:19.114Z,12.13
2019-04-26T20:13:51.860Z,10.90
2019-04-26T20:16:18.644Z,11.40
2019-04-26T20:18:47.075Z,10.93
2019-04-26T20:21:15.650Z,10.07
2019-04-26T20:23:47.338Z,11.03
2019-04-26T20:26:14.366Z,10.43
2019-04-26T20:28:42.794Z,9.87
2019-04-26T20:31:29.399Z,9.20
2019-04-26T20:33:57.819Z,8.73
2019-04-26T20:36:26.399Z,9.77
2019-04-26T20:38:54.822Z,9.20
2019-04-26T20:41:23.280Z,9.63
2019-04-26T20:44:04.438Z,9.90
2019-04-26T20:46:24.939Z,9.13
2019-04-26T20:48:52.129Z,10.20
2019-04-26T20:51:22.459Z,9.80
2019-04-26T20:53:50.769Z,8.83
2019-04-26T20:56:19.290Z,9.17
2019-04-26T20:58:47.708Z,10.77
2019-04-26T21:01:16.703Z,10.87
2019-04-26T21:03:46.144Z,11.23
2019-04-26T21:06:14.975Z,12.77
2019-04-26T21:08:43.462Z,12.67
2019-04-26T21:11:13.725Z,12.80
2019-04-26T21:13:42.372Z,13.50
2019-04-26T21:16:15.017Z,12.50
2019-04-26T21:18:44.101Z,11.17
2019-04-26T21:21:12.085Z,10.40
2019-04-26T21:23:42.222Z,11.53
2019-04-26T21:26:16.381Z,11.00
2019-04-26T21:29:03.303Z,10.70
2019-04-26T21:31:40.861Z,11.57
2019-04-26T21:34:18.347Z,10.50
2019-04-26T21:36:54.078Z,11.00
2019-04-26T21:39:24.156Z,11.03
2019-04-26T21:41:54.234Z,11.47
2019-04-26T21:44:22.749Z,11.30
2019-04-26T21:46:56.215Z,10.37
2019-04-26T21:49:22.204Z,11.57
2019-04-26T21:51:53.809Z,11.23
2019-04-26T21:54:21.686Z,10.70
2019-04-26T21:56:50.112Z,11.60
2019-04-26T21:59:18.551Z,12.37
2019-04-26T22:01:48.253Z,11.70
2019-04-26T22:04:17.576Z,12.90
2019-04-26T22:06:46.016Z,11.70
2019-04-26T22:09:28.507Z,11.70
2019-04-26T22:11:56.767Z,12.03
2019-04-26T22:14:29.815Z,10.33
2019-04-26T22:17:05.255Z,11.00
2019-04-26T22:19:35.419Z,11.23
2019-04-26T22:22:17.910Z,12.90
2019-04-26T22:24:50.871Z,12.00
2019-04-26T22:27:21.870Z,12.03
2019-04-26T22:29:51.814Z,12.80
2019-04-26T22:32:19.795Z,12.63
2019-04-26T22:34:48.247Z,13.30
2019-04-26T22:37:29.122Z,13.70
2019-04-26T22:39:46.919Z,12.30
2019-04-26T22:42:15.719Z,12.47
2019-04-26T22:44:51.557Z,14.27
2019-04-26T22:47:21.623Z,13.53
2019-04-26T22:49:50.062Z,13.13
2019-04-26T22:52:18.491Z,12.60
2019-04-26T22:54:46.939Z,11.33
2019-04-26T22:57:16.389Z,12.90
2019-04-26T22:59:49.922Z,13.93
2019-04-26T23:02:18.532Z,14.07
2019-04-26T23:04:46.475Z,15.73
2019-04-26T23:07:18.273Z,15.70
2019-04-26T23:09:51.969Z,16.00
2019-04-26T23:12:25.081Z,15.70
2019-04-26T23:15:06.242Z,15.30
2019-04-26T23:17:52.478Z,16.40
2019-04-26T23:20:29.244Z,17.40
2019-04-26T23:22:55.536Z,18.47
2019-04-26T23:25:27.663Z,18.67
2019-04-26T23:27:55.100Z,19.00
2019-04-26T23:30:27.728Z,17.47
2019-04-26T23:32:54.473Z,18.43
2019-04-26T23:35:22.915Z,18.83
2019-04-26T23:37:51.344Z,17.23
2019-04-26T23:40:20.782Z,18.03
2019-04-26T23:42:51.616Z,17.97
2019-04-26T23:45:20.122Z,17.53
2019-04-26T23:47:48.551Z,16.63
2019-04-26T23:50:17.078Z,16.30
2019-04-26T23:52:49.178Z,15.80
2019-04-26T23:55:15.686Z,16.97
2019-04-26T23:57:44.131Z,17.07
